createdAt,value
2018-09-28T00:01:27.278Z,49.10
2018-09-28T00:03:55.870Z,57.70
2018-09-28T00:06:24.372Z,53.70
2018-09-28T00:08:53.514Z,51.50
2018-09-28T00:11:22.222Z,54.93
2018-09-28T00:13:50.710Z,52.90
2018-09-28T00:16:19.561Z,52.60
2018-09-28T00:18:48.139Z,56.27
2018-09-28T00:21:17.305Z,51.83
2018-09-28T00:23:45.863Z,49.00
2018-09-28T00:26:15.240Z,56.90
2018-09-28T00:28:43.735Z,58.73
2018-09-28T00:31:12.262Z,53.13
2018-09-28T00:33:40.762Z,55.13
2018-09-28T00:36:09.307Z,60.57
2018-09-28T00:38:38.115Z,52.50
2018-09-28T00:41:06.859Z,64.73
2018-09-28T00:43:35.375Z,54.17
2018-09-28T00:46:03.897Z,53.50
2018-09-28T00:48:32.441Z,62.63
2018-09-28T00:51:01.282Z,64.53
2018-09-28T00:53:29.906Z,60.00
2018-09-28T00:55:58.475Z,62.27
2018-09-28T00:58:27.121Z,58.47
2018-09-28T01:00:55.647Z,70.33
2018-09-28T01:03:24.691Z,62.80
2018-09-28T01:05:53.228Z,56.77
2018-09-28T01:08:21.811Z,60.03
2018-09-28T01:10:50.310Z,68.87
2018-09-28T01:13:19.147Z,66.17
2018-09-28T01:15:48.774Z,65.83
2018-09-28T01:18:17.431Z,64.87
2018-09-28T01:20:45.951Z,69.83
2018-09-28T01:23:16.698Z,70.47
2018-09-28T01:25:45.290Z,63.73
2018-09-28T01:28:13.806Z,62.80
2018-09-28T01:30:42.305Z,64.43
2018-09-28T01:33:10.874Z,70.10
2018-09-28T01:35:39.415Z,66.17
2018-09-28T01:38:08.055Z,62.73
2018-09-28T01:40:36.579Z,61.87
2018-09-28T01:43:05.133Z,64.40
2018-09-28T01:45:33.698Z,67.37
2018-09-28T01:48:02.260Z,76.63
2018-09-28T01:50:30.842Z,69.77
2018-09-28T01:52:59.469Z,74.63
2018-09-28T01:55:28.016Z,72.23
2018-09-28T01:57:56.594Z,81.47
2018-09-28T02:00:25.143Z,80.60
2018-09-28T02:02:53.751Z,86.10
2018-09-28T02:05:22.291Z,78.63
2018-09-28T02:07:50.787Z,74.43
2018-09-28T02:10:19.359Z,67.90
2018-09-28T02:12:47.859Z,77.17
2018-09-28T02:15:16.375Z,74.97
2018-09-28T02:17:44.978Z,71.00
2018-09-28T02:20:13.477Z,80.40
2018-09-28T02:22:42.030Z,88.13
2018-09-28T02:25:10.695Z,90.30
2018-09-28T02:27:39.177Z,81.13
2018-09-28T02:30:08.112Z,80.20
2018-09-28T02:32:36.589Z,74.67
2018-09-28T02:35:05.503Z,74.67
2018-09-28T02:37:34.055Z,78.73
2018-09-28T02:40:02.611Z,79.97
2018-09-28T02:42:34.046Z,94.93
2018-09-28T02:45:02.818Z,69.33
2018-09-28T02:47:31.351Z,77.23
2018-09-28T02:49:59.875Z,76.57
2018-09-28T02:52:28.467Z,79.30
2018-09-28T02:54:57.021Z,77.57
2018-09-28T02:57:25.564Z,70.40
2018-09-28T02:59:56.989Z,74.20
2018-09-28T03:02:25.499Z,63.87
2018-09-28T03:04:54.069Z,61.20
2018-09-28T03:07:23.575Z,67.23
2018-09-28T03:09:52.111Z,70.13
2018-09-28T03:12:20.753Z,62.33
2018-09-28T03:14:49.227Z,70.90
2018-09-28T03:17:17.719Z,63.40
2018-09-28T03:19:46.241Z,67.63
2018-09-28T03:22:14.743Z,56.77
2018-09-28T03:24:43.285Z,55.37
2018-09-28T03:27:11.892Z,44.53
2018-09-28T03:29:40.417Z,47.03
2018-09-28T03:32:08.971Z,41.70
2018-09-28T03:34:37.499Z,34.70
2018-09-28T03:37:06.066Z,38.97
2018-09-28T03:39:34.562Z,27.97
2018-09-28T03:42:03.103Z,16.67
2018-09-28T03:44:31.755Z,18.20
2018-09-28T03:47:00.357Z,13.17
2018-09-28T03:49:29.022Z,16.13
2018-09-28T03:51:57.540Z,10.17
2018-09-28T03:54:26.050Z,20.17
2018-09-28T03:56:54.606Z,17.93
2018-09-28T03:59:23.376Z,13.97
2018-09-28T04:01:52.002Z,11.67
2018-09-28T04:04:20.518Z,13.37
2018-09-28T04:06:49.136Z,12.13
2018-09-28T04:09:17.712Z,17.37
2018-09-28T04:11:46.242Z,12.07
2018-09-28T04:14:14.805Z,12.73
2018-09-28T04:16:43.428Z,14.00
2018-09-28T04:19:11.942Z,22.40
2018-09-28T04:21:44.123Z,19.07
2018-09-28T04:24:12.803Z,9.07
2018-09-28T04:26:41.411Z,12.53
2018-09-28T04:29:10.288Z,17.00
2018-09-28T04:31:38.810Z,9.70
2018-09-28T04:34:07.411Z,7.33
2018-09-28T04:36:35.926Z,12.13
2018-09-28T04:39:05.747Z,7.17
2018-09-28T04:41:34.293Z,9.30
2018-09-28T04:44:02.850Z,8.80
2018-09-28T04:46:31.354Z,13.83
2018-09-28T04:48:59.965Z,18.10
2018-09-28T04:51:29.286Z,18.23
2018-09-28T04:53:57.972Z,18.93
2018-09-28T04:56:26.538Z,15.70
2018-09-28T04:58:55.082Z,9.80
2018-09-28T05:01:24.575Z,10.83
2018-09-28T05:03:54.083Z,17.23
2018-09-28T05:06:24.003Z,13.83
2018-09-28T05:08:52.663Z,12.57
2018-09-28T05:11:21.166Z,17.53
2018-09-28T05:13:49.712Z,15.43
2018-09-28T05:16:18.227Z,13.63
2018-09-28T05:18:46.755Z,13.37
2018-09-28T05:21:15.287Z,11.00
2018-09-28T05:23:43.871Z,10.70
2018-09-28T05:26:12.358Z,8.33
2018-09-28T05:28:40.879Z,11.80
2018-09-28T05:31:09.477Z,11.97
2018-09-28T05:33:38.046Z,8.67
2018-09-28T05:36:06.539Z,15.93
2018-09-28T05:38:35.027Z,9.53
2018-09-28T05:41:03.607Z,15.60
2018-09-28T05:43:32.094Z,23.33
2018-09-28T05:46:00.633Z,14.57
2018-09-28T05:48:29.142Z,17.83
2018-09-28T05:50:57.722Z,14.73
2018-09-28T05:53:26.299Z,13.23
2018-09-28T05:55:54.781Z,14.23
2018-09-28T05:58:28.580Z,15.57
2018-09-28T06:01:02.405Z,14.10
2018-09-28T06:03:30.945Z,14.93
2018-09-28T06:06:01.996Z,8.70
2018-09-28T06:08:30.681Z,10.90
2018-09-28T06:10:59.185Z,19.37
2018-09-28T06:13:27.730Z,12.10
2018-09-28T06:15:56.256Z,9.70
2018-09-28T06:18:24.899Z,6.63
2018-09-28T06:20:53.454Z,17.77
2018-09-28T06:23:21.977Z,17.03
2018-09-28T06:25:50.526Z,10.20
2018-09-28T06:28:19.023Z,19.93
2018-09-28T06:30:47.593Z,13.43
2018-09-28T06:33:16.140Z,18.40
2018-09-28T06:35:44.992Z,21.77
2018-09-28T06:38:13.702Z,13.50
2018-09-28T06:40:42.223Z,27.40
2018-09-28T06:43:10.742Z,18.80
2018-09-28T06:45:39.233Z,14.13
2018-09-28T06:48:07.860Z,18.10
2018-09-28T06:50:36.346Z,21.60
2018-09-28T06:53:04.893Z,24.37
2018-09-28T06:55:33.450Z,13.83
2018-09-28T06:58:02.160Z,23.33
2018-09-28T07:00:30.738Z,20.13
2018-09-28T07:02:59.539Z,19.60
2018-09-28T07:05:28.030Z,23.40
2018-09-28T07:07:56.531Z,18.60
2018-09-28T07:10:25.116Z,20.87
2018-09-28T07:12:53.652Z,16.00
2018-09-28T07:15:22.230Z,12.67
2018-09-28T07:17:50.807Z,22.90
2018-09-28T07:20:19.288Z,20.00
2018-09-28T07:22:47.802Z,15.87
2018-09-28T07:25:16.406Z,13.70
2018-09-28T07:27:45.239Z,14.53
2018-09-28T07:30:13.832Z,13.47
2018-09-28T07:32:42.355Z,13.60
2018-09-28T07:35:10.870Z,9.57
2018-09-28T07:37:39.470Z,18.37
2018-09-28T07:40:08.011Z,15.37
2018-09-28T07:42:36.524Z,8.00
2018-09-28T07:45:05.103Z,17.47
2018-09-28T07:47:33.635Z,19.10
2018-09-28T07:50:02.147Z,13.07
2018-09-28T07:52:30.702Z,10.23
2018-09-28T07:54:59.195Z,17.73
2018-09-28T07:57:27.723Z,22.47
2018-09-28T07:59:56.214Z,5.90
2018-09-28T08:02:24.682Z,21.53
2018-09-28T08:04:53.581Z,13.77
2018-09-28T08:07:22.117Z,12.57
2018-09-28T08:09:50.703Z,16.30
2018-09-28T08:12:19.321Z,8.20
2018-09-28T08:14:47.833Z,9.07
2018-09-28T08:17:16.345Z,18.57
2018-09-28T08:19:44.840Z,12.00
2018-09-28T08:22:13.426Z,19.57
2018-09-28T08:24:42.047Z,4.77
2018-09-28T08:27:10.540Z,12.33
2018-09-28T08:29:39.088Z,6.80
2018-09-28T08:32:07.990Z,10.93
2018-09-28T08:34:36.538Z,16.87
2018-09-28T08:37:05.084Z,6.93
2018-09-28T08:39:33.865Z,14.03
2018-09-28T08:42:02.404Z,17.03
2018-09-28T08:44:30.955Z,21.80
2018-09-28T08:46:59.542Z,23.17
2018-09-28T08:49:28.101Z,13.40
2018-09-28T08:51:57.083Z,8.67
2018-09-28T08:54:25.631Z,10.10
2018-09-28T08:56:54.226Z,10.63
2018-09-28T08:59:22.766Z,8.67
2018-09-28T09:01:51.646Z,13.47
2018-09-28T09:04:20.192Z,6.53
2018-09-28T09:06:48.731Z,5.57
2018-09-28T09:09:17.260Z,7.60
2018-09-28T09:11:45.812Z,15.63
2018-09-28T09:14:14.406Z,6.80
2018-09-28T09:16:42.952Z,7.03
2018-09-28T09:19:11.747Z,13.30
2018-09-28T09:21:40.303Z,14.53
2018-09-28T09:24:08.853Z,14.77
2018-09-28T09:26:37.399Z,8.27
2018-09-28T09:29:05.937Z,7.50
2018-09-28T09:31:34.484Z,14.77
2018-09-28T09:34:03.034Z,11.70
2018-09-28T09:36:31.560Z,6.47
2018-09-28T09:39:00.106Z,4.77
2018-09-28T09:41:28.656Z,15.37
2018-09-28T09:43:57.174Z,7.80
2018-09-28T09:46:25.707Z,10.60
2018-09-28T09:48:54.205Z,7.70
2018-09-28T09:51:22.725Z,9.37
2018-09-28T09:53:51.276Z,12.70
2018-09-28T09:56:19.787Z,16.33
2018-09-28T09:58:48.278Z,13.70
2018-09-28T10:01:22.181Z,10.20
2018-09-28T10:03:51.656Z,9.57
2018-09-28T10:06:20.330Z,16.70
2018-09-28T10:08:49.730Z,4.60
2018-09-28T10:11:18.304Z,8.97
2018-09-28T10:13:46.879Z,13.43
2018-09-28T10:16:15.382Z,12.03
2018-09-28T10:18:44.459Z,10.53
2018-09-28T10:21:13.063Z,16.07
2018-09-28T10:23:41.562Z,16.27
2018-09-28T10:26:10.111Z,20.07
2018-09-28T10:28:38.747Z,4.33
2018-09-28T10:31:07.296Z,5.17
2018-09-28T10:33:35.897Z,8.50
2018-09-28T10:36:04.357Z,7.00
2018-09-28T10:38:32.907Z,7.50
2018-09-28T10:41:01.542Z,6.60
2018-09-28T10:43:30.055Z,19.40
2018-09-28T10:45:58.579Z,23.03
2018-09-28T10:48:27.086Z,4.50
2018-09-28T10:50:55.668Z,10.30
2018-09-28T10:53:24.179Z,17.93
2018-09-28T10:55:52.679Z,5.97
2018-09-28T10:58:21.242Z,7.53
2018-09-28T11:00:49.857Z,6.00
2018-09-28T11:03:18.478Z,3.50
2018-09-28T11:05:46.984Z,7.03
2018-09-28T11:08:15.586Z,7.53
2018-09-28T11:10:44.208Z,9.93
2018-09-28T11:13:12.826Z,10.23
2018-09-28T11:15:41.421Z,6.77
2018-09-28T11:18:09.914Z,1.63
2018-09-28T11:20:38.430Z,9.20
2018-09-28T11:23:07.007Z,4.60
2018-09-28T11:25:35.570Z,2.80
2018-09-28T11:28:04.099Z,17.57
2018-09-28T11:30:32.623Z,11.10
2018-09-28T11:33:01.302Z,8.27
2018-09-28T11:35:29.826Z,5.67
2018-09-28T11:37:58.341Z,7.13
2018-09-28T11:40:26.833Z,9.87
2018-09-28T11:42:55.356Z,10.93
2018-09-28T11:45:23.900Z,6.70
2018-09-28T11:47:52.422Z,7.80
2018-09-28T11:50:20.934Z,5.17
2018-09-28T11:52:49.725Z,4.93
2018-09-28T11:55:18.268Z,4.50
2018-09-28T11:57:46.819Z,9.70
2018-09-28T12:00:15.328Z,7.00
2018-09-28T12:02:43.825Z,5.93
2018-09-28T12:05:12.454Z,5.47
2018-09-28T12:07:40.963Z,7.40
2018-09-28T12:10:09.552Z,7.13
2018-09-28T12:12:38.094Z,7.17
2018-09-28T12:15:06.753Z,5.73
2018-09-28T12:17:35.221Z,9.17
2018-09-28T12:20:03.950Z,15.93
2018-09-28T12:22:32.454Z,11.23
2018-09-28T12:25:00.966Z,12.40
2018-09-28T12:27:29.485Z,10.50
2018-09-28T12:29:58.263Z,7.43
2018-09-28T12:32:26.791Z,12.33
2018-09-28T12:34:55.270Z,6.93
2018-09-28T12:37:23.810Z,6.30
2018-09-28T12:39:52.480Z,11.57
2018-09-28T12:42:20.977Z,4.33
2018-09-28T12:44:49.585Z,10.93
2018-09-28T12:47:24.340Z,9.07
2018-09-28T12:49:52.851Z,8.63
2018-09-28T12:52:21.415Z,7.40
2018-09-28T12:54:50.110Z,3.93
2018-09-28T12:57:18.601Z,6.20
2018-09-28T12:59:47.103Z,7.97
2018-09-28T13:02:15.657Z,6.50
2018-09-28T13:04:44.185Z,5.13
2018-09-28T13:07:12.784Z,5.97
2018-09-28T13:09:41.305Z,2.73
2018-09-28T13:12:09.976Z,6.13
2018-09-28T13:14:38.554Z,5.33
2018-09-28T13:17:07.152Z,2.57
2018-09-28T13:19:35.698Z,8.80
2018-09-28T13:22:04.213Z,8.07
2018-09-28T13:24:32.759Z,8.70
2018-09-28T13:27:01.334Z,11.03
2018-09-28T13:29:29.862Z,6.30
2018-09-28T13:31:58.379Z,5.90
2018-09-28T13:34:26.914Z,2.90
2018-09-28T13:36:55.481Z,5.70
2018-09-28T13:39:24.066Z,14.90
2018-09-28T13:41:52.555Z,8.60
2018-09-28T13:44:21.136Z,8.30
2018-09-28T13:46:49.866Z,12.23
2018-09-28T13:49:18.359Z,9.60
2018-09-28T13:51:46.975Z,14.83
2018-09-28T13:54:16.311Z,10.63
2018-09-28T13:56:44.908Z,4.10
2018-09-28T13:59:14.714Z,5.33
2018-09-28T14:01:43.324Z,3.03
2018-09-28T14:04:11.822Z,1.33
2018-09-28T14:06:40.398Z,1.87
2018-09-28T14:09:09.926Z,3.43
2018-09-28T14:11:38.669Z,4.40
2018-09-28T14:14:07.324Z,8.67
2018-09-28T14:16:37.227Z,4.47
2018-09-28T14:19:05.815Z,3.10
2018-09-28T14:21:34.623Z,5.90
2018-09-28T14:24:03.216Z,4.70
2018-09-28T14:26:31.749Z,7.60
2018-09-28T14:29:00.299Z,7.10
2018-09-28T14:31:29.502Z,4.93
2018-09-28T14:33:58.080Z,7.03
2018-09-28T14:36:26.679Z,7.57
2018-09-28T14:38:55.226Z,4.17
2018-09-28T14:41:23.740Z,6.10
2018-09-28T14:43:52.269Z,6.60
2018-09-28T14:46:20.863Z,7.83
2018-09-28T14:48:49.572Z,5.23
2018-09-28T14:51:18.265Z,8.23
2018-09-28T14:53:47.530Z,2.83
2018-09-28T14:56:16.902Z,7.80
2018-09-28T14:58:46.234Z,7.20
2018-09-28T15:01:15.526Z,5.27
2018-09-28T15:03:44.042Z,8.53
2018-09-28T15:06:12.597Z,9.77
2018-09-28T15:08:41.276Z,6.73
2018-09-28T15:11:09.762Z,10.70
2018-09-28T15:13:38.352Z,16.63
2018-09-28T15:16:07.357Z,7.10
2018-09-28T15:18:37.217Z,9.63
2018-09-28T15:21:05.991Z,4.40
2018-09-28T15:23:34.766Z,3.10
2018-09-28T15:26:03.434Z,5.37
2018-09-28T15:28:32.091Z,4.00
2018-09-28T15:31:01.775Z,3.90
2018-09-28T15:33:33.074Z,2.57
2018-09-28T15:36:02.425Z,5.27
2018-09-28T15:38:30.935Z,7.03
2018-09-28T15:40:59.569Z,6.63
2018-09-28T15:43:28.100Z,8.57
2018-09-28T15:45:57.569Z,10.27
2018-09-28T15:48:26.064Z,8.00
2018-09-28T15:50:55.275Z,14.83
2018-09-28T15:53:23.782Z,15.10
2018-09-28T15:55:52.314Z,6.83
2018-09-28T15:58:21.081Z,7.13
2018-09-28T16:00:49.770Z,10.10
2018-09-28T16:03:18.286Z,11.53
2018-09-28T16:05:47.610Z,6.97
2018-09-28T16:08:16.102Z,9.97
2018-09-28T16:10:44.634Z,10.40
2018-09-28T16:13:13.174Z,5.87
2018-09-28T16:15:41.693Z,6.07
2018-09-28T16:18:11.459Z,9.13
2018-09-28T16:20:40.769Z,10.00
2018-09-28T16:23:09.269Z,5.13
2018-09-28T16:25:37.757Z,5.33
2018-09-28T16:28:06.279Z,17.80
2018-09-28T16:30:34.813Z,10.90
2018-09-28T16:33:03.321Z,7.50
2018-09-28T16:35:32.083Z,7.90
2018-09-28T16:38:00.505Z,11.80
2018-09-28T16:40:29.087Z,21.20
2018-09-28T16:42:57.603Z,12.30
2018-09-28T16:45:26.205Z,12.13
2018-09-28T16:47:56.234Z,7.97
2018-09-28T16:50:24.865Z,12.23
2018-09-28T16:52:53.581Z,13.77
2018-09-28T16:55:22.281Z,10.70
2018-09-28T16:57:50.956Z,12.00
2018-09-28T17:00:19.454Z,10.40
2018-09-28T17:02:48.019Z,7.80
2018-09-28T17:05:16.502Z,10.63
2018-09-28T17:07:45.018Z,8.93
2018-09-28T17:10:13.522Z,13.20
2018-09-28T17:12:42.009Z,7.10
2018-09-28T17:15:10.629Z,5.13
2018-09-28T17:17:39.249Z,5.67
2018-09-28T17:20:07.899Z,11.40
2018-09-28T17:22:36.504Z,7.17
2018-09-28T17:25:05.005Z,14.93
2018-09-28T17:27:33.578Z,9.43
2018-09-28T17:34:52.151Z,8.40
2018-09-28T17:37:20.735Z,9.00
2018-09-28T17:39:49.284Z,15.20
2018-09-28T17:42:17.765Z,11.60
2018-09-28T17:44:47.077Z,15.80
2018-09-28T17:47:15.681Z,6.40
2018-09-28T17:49:44.203Z,8.10
2018-09-28T17:52:12.660Z,5.83
2018-09-28T17:54:41.261Z,3.97
2018-09-28T17:57:09.798Z,7.10
2018-09-28T17:59:38.290Z,9.70
2018-09-28T18:02:12.376Z,8.43
2018-09-28T18:04:41.690Z,7.23
2018-09-28T18:07:10.193Z,6.90
2018-09-28T18:09:38.715Z,4.40
2018-09-28T18:12:06.196Z,8.40
2018-09-28T18:14:34.723Z,4.97
2018-09-28T18:17:03.274Z,14.33
2018-09-28T18:19:31.838Z,8.60
2018-09-28T18:22:00.442Z,15.57
2018-09-28T18:24:29.004Z,18.40
2018-09-28T18:26:57.569Z,4.67
2018-09-28T18:29:27.191Z,8.83
2018-09-28T18:31:55.686Z,12.50
2018-09-28T18:34:24.284Z,8.10
2018-09-28T18:36:52.814Z,5.13
2018-09-28T18:39:21.406Z,7.53
2018-09-28T18:41:50.623Z,9.63
2018-09-28T18:44:19.085Z,6.43
2018-09-28T18:46:47.565Z,6.13
2018-09-28T18:49:16.402Z,10.70
2018-09-28T18:51:44.916Z,5.33
2018-09-28T18:54:13.410Z,6.63
2018-09-28T18:56:41.978Z,12.00
2018-09-28T18:59:11.335Z,8.23
2018-09-28T19:01:39.885Z,20.70
2018-09-28T19:04:10.311Z,8.43
2018-09-28T19:06:38.854Z,12.50
2018-09-28T19:09:09.473Z,5.00
2018-09-28T19:11:38.311Z,5.47
2018-09-28T19:14:06.825Z,19.43
2018-09-28T19:16:35.330Z,9.73
2018-09-28T19:19:03.873Z,9.93
2018-09-28T19:21:32.524Z,7.60
2018-09-28T19:24:01.177Z,12.53
2018-09-28T19:26:29.702Z,7.17
2018-09-28T19:28:58.738Z,10.10
2018-09-28T19:31:27.289Z,8.47
2018-09-28T19:33:56.585Z,15.60
2018-09-28T19:36:25.859Z,7.00
2018-09-28T19:38:54.561Z,12.03
2018-09-28T19:41:23.103Z,9.63
2018-09-28T19:43:52.626Z,4.70
2018-09-28T19:46:21.222Z,9.47
2018-09-28T19:48:49.739Z,8.70
2018-09-28T19:51:18.441Z,9.57
2018-09-28T19:53:47.141Z,11.80
2018-09-28T19:56:15.668Z,10.00
2018-09-28T19:58:44.581Z,15.87
2018-09-28T20:01:13.163Z,9.13
2018-09-28T20:03:41.689Z,10.97
2018-09-28T20:06:10.381Z,5.73
2018-09-28T20:08:38.954Z,19.37
2018-09-28T20:11:07.505Z,12.67
2018-09-28T20:13:35.990Z,15.47
2018-09-28T20:16:04.476Z,7.20
2018-09-28T20:18:33.349Z,5.97
2018-09-28T20:21:01.967Z,10.80
2018-09-28T20:23:30.633Z,7.13
2018-09-28T20:25:59.166Z,18.77
2018-09-28T20:28:27.670Z,18.67
2018-09-28T20:30:56.237Z,8.27
2018-09-28T20:33:24.821Z,14.17
2018-09-28T20:35:53.400Z,16.27
2018-09-28T20:38:22.057Z,8.63
2018-09-28T20:40:50.602Z,11.30
2018-09-28T20:43:19.173Z,9.20
2018-09-28T20:45:47.647Z,8.47
2018-09-28T20:48:16.255Z,10.73
2018-09-28T20:50:44.714Z,6.87
2018-09-28T20:53:13.296Z,8.83
2018-09-28T20:55:41.871Z,13.83
2018-09-28T20:58:10.311Z,9.80
2018-09-28T21:00:39.046Z,7.23
2018-09-28T21:03:07.613Z,8.53
2018-09-28T21:05:36.666Z,6.03
2018-09-28T21:08:05.179Z,8.77
2018-09-28T21:10:33.734Z,13.13
2018-09-28T21:13:02.270Z,13.37
2018-09-28T21:15:31.105Z,16.47
2018-09-28T21:17:59.585Z,14.37
2018-09-28T21:20:28.067Z,15.27
2018-09-28T21:22:56.625Z,17.00
2018-09-28T21:25:25.545Z,19.20
2018-09-28T21:27:54.029Z,14.73
2018-09-28T21:30:22.556Z,13.07
2018-09-28T21:32:51.091Z,16.13
2018-09-28T21:35:19.588Z,18.17
2018-09-28T21:37:48.122Z,11.30
2018-09-28T21:40:16.927Z,9.20
2018-09-28T21:42:45.733Z,10.47
2018-09-28T21:45:14.205Z,13.17
2018-09-28T21:47:42.757Z,12.90
2018-09-28T21:50:11.921Z,8.87
2018-09-28T21:52:40.378Z,12.10
2018-09-28T21:55:08.938Z,10.20
2018-09-28T21:57:38.645Z,6.73
2018-09-28T22:00:07.833Z,10.53
2018-09-28T22:02:36.589Z,6.80
2018-09-28T22:05:05.241Z,10.67
2018-09-28T22:07:33.778Z,9.43
2018-09-28T22:10:02.331Z,5.07
2018-09-28T22:12:30.798Z,9.80
2018-09-28T22:14:59.342Z,11.43
2018-09-28T22:17:27.896Z,17.10
2018-09-28T22:19:56.462Z,13.67
2018-09-28T22:22:24.951Z,8.20
2018-09-28T22:24:53.443Z,5.03
2018-09-28T22:27:22.444Z,11.67
2018-09-28T22:29:50.983Z,5.70
2018-09-28T22:32:20.266Z,6.90
2018-09-28T22:34:48.766Z,3.77
2018-09-28T22:37:17.766Z,4.53
2018-09-28T22:39:46.265Z,6.90
2018-09-28T22:42:14.813Z,3.83
2018-09-28T22:44:43.377Z,8.00
2018-09-28T22:47:11.926Z,10.30
2018-09-28T22:49:40.401Z,8.73
2018-09-28T22:52:08.893Z,5.50
2018-09-28T22:54:38.561Z,6.13
2018-09-28T22:57:10.021Z,7.60
2018-09-28T22:59:38.561Z,9.60
2018-09-28T23:02:07.110Z,5.50
2018-09-28T23:04:35.617Z,16.23
2018-09-28T23:07:04.141Z,11.03
2018-09-28T23:09:32.629Z,9.00
2018-09-28T23:12:01.222Z,7.90
2018-09-28T23:14:29.713Z,9.90
2018-09-28T23:16:58.235Z,14.00
2018-09-28T23:19:26.816Z,4.87
2018-09-28T23:21:55.318Z,5.50
2018-09-28T23:24:23.905Z,11.50
2018-09-28T23:26:52.404Z,10.50
2018-09-28T23:29:21.158Z,9.97
2018-09-28T23:31:49.651Z,4.83
2018-09-28T23:34:18.242Z,7.20
2018-09-28T23:36:46.834Z,6.00
2018-09-28T23:39:15.917Z,4.40
2018-09-28T23:41:45.119Z,12.10
2018-09-28T23:44:13.639Z,7.13
2018-09-28T23:46:42.194Z,4.70
2018-09-28T23:49:10.669Z,8.50
2018-09-28T23:51:39.194Z,5.50
2018-09-28T23:54:07.665Z,6.57
2018-09-28T23:56:36.770Z,8.33
2018-09-28T23:59:06.062Z,12.63
